Time;durP1;ratioP1;P1;durP2;ratioP2;P2;SDS_P1;SDS_P2;PMS_P1;PMS_P2;Temp;Humidity;BMP_temperature;BMP_pressure;BME280_temperature;BME280_humidity;BME280_pressure;Samples;Min_cycle;Max_cycle;Signal;HPM_P1;HPM_P2
2023/12/30 09:07:00;;;;;;;8.07;1.53;;;9.10;99.90;;;;;;4879163;23;20330;-76
2023/12/30 09:09:27;;;;;;;4.93;1.40;;;9.00;99.90;;;;;;4861846;29;20295;-78
2023/12/30 09:11:54;;;;;;;6.47;1.33;;;8.90;99.90;;;;;;4860195;29;20207;-77
2023/12/30 09:14:21;;;;;;;5.53;1.20;;;9.00;99.90;;;;;;4862034;29;20299;-76
2023/12/30 09:16:47;;;;;;;5.57;1.70;;;9.10;99.90;;;;;;4863714;29;20303;-76
2023/12/30 09:19:14;;;;;;;5.10;1.80;;;9.10;99.90;;;;;;4863055;29;20290;-74
2023/12/30 09:21:41;;;;;;;5.83;0.97;;;9.10;99.90;;;;;;4863990;29;20244;-74
2023/12/30 09:24:09;;;;;;;8.70;0.93;;;9.10;99.90;;;;;;4863756;29;20729;-75
2023/12/30 09:26:36;;;;;;;10.97;1.63;;;9.00;99.90;;;;;;4863793;29;20302;-73
2023/12/30 09:29:03;;;;;;;8.77;1.87;;;9.00;99.90;;;;;;4864133;29;20298;-73
2023/12/30 09:31:30;;;;;;;9.23;1.20;;;9.10;99.90;;;;;;4863572;29;20299;-76
2023/12/30 09:33:57;;;;;;;7.70;1.97;;;9.10;99.90;;;;;;4863179;29;20259;-73
2023/12/30 09:36:23;;;;;;;8.00;1.57;;;9.10;99.90;;;;;;4863586;29;20247;-74
2023/12/30 09:38:51;;;;;;;5.33;1.53;;;9.30;99.90;;;;;;4863513;29;20308;-73
2023/12/30 09:41:24;;;;;;;3.57;1.33;;;9.30;99.90;;;;;;4863364;29;20251;-75
2023/12/30 09:43:52;;;;;;;5.50;1.27;;;9.40;99.90;;;;;;4863109;29;20258;-74
2023/12/30 09:46:21;;;;;;;7.13;1.30;;;9.30;99.90;;;;;;4863536;29;20227;-74
2023/12/30 09:48:52;;;;;;;5.60;1.63;;;9.20;99.90;;;;;;4863481;29;20303;-73
2023/12/30 09:51:19;;;;;;;4.83;1.23;;;9.20;99.90;;;;;;4863302;29;20258;-74
2023/12/30 09:53:46;;;;;;;2.67;0.97;;;9.30;99.90;;;;;;4863361;29;20264;-74
2023/12/30 09:56:14;;;;;;;4.20;0.93;;;9.30;99.90;;;;;;4863155;29;20247;-74
2023/12/30 09:58:43;;;;;;;2.37;0.97;;;9.30;99.90;;;;;;4863379;29;20244;-74
2023/12/30 10:01:10;;;;;;;4.13;0.80;;;9.50;99.90;;;;;;4862986;29;20247;-74
2023/12/30 10:03:37;;;;;;;5.87;1.27;;;9.50;99.90;;;;;;4863199;29;20326;-73
2023/12/30 10:06:06;;;;;;;1.20;0.73;;;9.50;99.90;;;;;;4863173;29;20678;-74
2023/12/30 10:08:33;;;;;;;6.17;1.17;;;9.50;99.90;;;;;;4863247;29;20668;-73
2023/12/30 10:11:00;;;;;;;4.73;1.03;;;9.40;99.90;;;;;;4863429;29;20311;-74
2023/12/30 10:13:27;;;;;;;5.33;1.00;;;9.50;99.90;;;;;;4863196;29;20274;-73
2023/12/30 10:15:58;;;;;;;1.63;1.00;;;9.50;99.90;;;;;;4863445;29;20254;-73
2023/12/30 10:18:25;;;;;;;2.70;0.80;;;9.50;99.90;;;;;;4863257;29;20258;-74
2023/12/30 10:20:53;;;;;;;2.67;0.73;;;9.40;99.90;;;;;;4863145;29;20251;-73
2023/12/30 10:23:20;;;;;;;5.43;1.00;;;9.50;99.90;;;;;;4862985;29;20275;-73
2023/12/30 10:25:47;;;;;;;5.73;1.53;;;9.50;99.90;;;;;;4862573;29;20239;-74
2023/12/30 10:28:14;;;;;;;2.30;0.80;;;9.50;99.90;;;;;;4863034;29;20208;-73
2023/12/30 10:30:41;;;;;;;2.20;0.80;;;9.60;99.90;;;;;;4863376;29;20212;-73
2023/12/30 10:33:11;;;;;;;4.20;1.00;;;9.70;99.90;;;;;;4862791;29;20271;-73
2023/12/30 10:35:40;;;;;;;7.00;0.83;;;9.80;99.90;;;;;;4863138;29;20300;-73
2023/12/30 10:38:08;;;;;;;5.57;0.77;;;9.80;99.90;;;;;;4862837;29;20247;-73
2023/12/30 10:40:35;;;;;;;4.00;0.80;;;9.80;99.90;;;;;;4862724;29;20251;-73
2023/12/30 10:43:03;;;;;;;4.37;0.80;;;9.80;99.90;;;;;;4862579;29;20279;-74
2023/12/30 10:45:31;;;;;;;7.23;1.03;;;9.80;99.90;;;;;;4862374;29;20248;-73
2023/12/30 10:48:00;;;;;;;2.93;0.70;;;9.80;99.90;;;;;;4862411;29;20264;-73
2023/12/30 10:50:30;;;;;;;3.33;0.87;;;9.80;99.90;;;;;;4862450;29;20259;-74
2023/12/30 10:53:02;;;;;;;6.20;0.87;;;9.80;99.90;;;;;;4862448;29;20228;-73
2023/12/30 10:55:32;;;;;;;5.00;1.03;;;9.90;99.90;;;;;;4862532;29;20208;-73
2023/12/30 10:58:04;;;;;;;5.17;0.83;;;9.80;99.90;;;;;;4862650;29;20219;-74
2023/12/30 11:00:35;;;;;;;4.53;0.97;;;10.00;99.90;;;;;;4862385;29;20243;-74
2023/12/30 11:03:03;;;;;;;4.83;0.50;;;9.90;99.90;;;;;;4862085;29;20247;-74
2023/12/30 11:05:36;;;;;;;2.87;1.00;;;9.90;99.90;;;;;;4862245;29;20244;-73
2023/12/30 11:08:05;;;;;;;5.83;2.50;;;9.90;99.90;;;;;;4862241;29;20244;-73
2023/12/30 11:10:34;;;;;;;4.17;1.00;;;10.00;99.90;;;;;;4862360;29;20247;-74
2023/12/30 11:13:01;;;;;;;2.57;0.40;;;10.10;99.90;;;;;;4862332;29;20235;-74
2023/12/30 11:15:30;;;;;;;5.87;1.20;;;10.20;99.90;;;;;;4862306;29;20735;-73
2023/12/30 11:17:58;;;;;;;9.03;0.90;;;10.20;99.90;;;;;;4862177;29;20244;-73
2023/12/30 11:20:27;;;;;;;5.50;0.93;;;10.20;99.90;;;;;;4861456;29;20216;-74
2023/12/30 11:22:58;;;;;;;3.63;0.70;;;10.20;99.90;;;;;;4861558;29;20299;-74
2023/12/30 11:25:34;;;;;;;4.93;1.03;;;10.20;99.90;;;;;;4862176;29;20258;-73
2023/12/30 11:28:17;;;;;;;4.50;0.60;;;10.40;99.90;;;;;;4861772;29;20663;-74
2023/12/30 11:30:45;;;;;;;1.87;0.60;;;10.50;99.90;;;;;;4861823;29;20216;-73
2023/12/30 11:33:13;;;;;;;5.17;0.80;;;10.50;99.90;;;;;;4861566;29;20238;-74
2023/12/30 11:35:40;;;;;;;3.67;0.60;;;10.60;99.90;;;;;;4861628;29;20212;-74
2023/12/30 11:38:12;;;;;;;3.77;0.70;;;10.70;99.90;;;;;;4860328;29;20680;-74
2023/12/30 11:40:43;;;;;;;4.80;0.60;;;10.60;99.90;;;;;;4861828;29;20212;-74
2023/12/30 11:43:10;;;;;;;9.20;0.70;;;10.60;99.90;;;;;;4864210;29;20270;-74
